sensor_id;sensor_type;location;lat;lon;timestamp;P1;durP1;ratioP1;P2;durP2;ratioP2
68353;SDS011;55274;43.060;25.618;2023-07-20T00:01:59;24.08;;;3.15;;
68353;SDS011;55274;43.060;25.618;2023-07-20T00:04:24;17.13;;;3.72;;
68353;SDS011;55274;43.060;25.618;2023-07-20T00:06:50;17.98;;;5.40;;
68353;SDS011;55274;43.060;25.618;2023-07-20T00:09:16;13.57;;;4.97;;
68353;SDS011;55274;43.060;25.618;2023-07-20T00:11:48;16.73;;;2.88;;
68353;SDS011;55274;43.060;25.618;2023-07-20T00:14:18;16.35;;;2.97;;
68353;SDS011;55274;43.060;25.618;2023-07-20T00:16:45;16.67;;;2.88;;
68353;SDS011;55274;43.060;25.618;2023-07-20T00:19:12;12.90;;;2.50;;
68353;SDS011;55274;43.060;25.618;2023-07-20T00:21:38;19.02;;;4.90;;
68353;SDS011;55274;43.060;25.618;2023-07-20T00:24:07;22.10;;;5.50;;
68353;SDS011;55274;43.060;25.618;2023-07-20T00:26:33;12.18;;;4.40;;
68353;SDS011;55274;43.060;25.618;2023-07-20T00:28:59;12.57;;;5.88;;
68353;SDS011;55274;43.060;25.618;2023-07-20T00:31:25;8.95;;;2.42;;
68353;SDS011;55274;43.060;25.618;2023-07-20T00:33:52;10.15;;;2.50;;
68353;SDS011;55274;43.060;25.618;2023-07-20T00:36:17;8.57;;;1.90;;
68353;SDS011;55274;43.060;25.618;2023-07-20T00:38:43;6.60;;;1.45;;
68353;SDS011;55274;43.060;25.618;2023-07-20T00:41:09;6.93;;;1.63;;
68353;SDS011;55274;43.060;25.618;2023-07-20T00:43:35;6.93;;;1.50;;
68353;SDS011;55274;43.060;25.618;2023-07-20T00:46:00;7.55;;;1.65;;
68353;SDS011;55274;43.060;25.618;2023-07-20T00:48:28;5.15;;;1.60;;
68353;SDS011;55274;43.060;25.618;2023-07-20T00:50:54;6.50;;;1.42;;
68353;SDS011;55274;43.060;25.618;2023-07-20T00:53:21;6.32;;;1.60;;
68353;SDS011;55274;43.060;25.618;2023-07-20T00:55:47;4.47;;;1.60;;
68353;SDS011;55274;43.060;25.618;2023-07-20T00:58:13;11.75;;;3.17;;
68353;SDS011;55274;43.060;25.618;2023-07-20T01:00:39;11.68;;;3.15;;
68353;SDS011;55274;43.060;25.618;2023-07-20T01:03:05;23.02;;;3.22;;
68353;SDS011;55274;43.060;25.618;2023-07-20T01:05:54;13.98;;;2.85;;
68353;SDS011;55274;43.060;25.618;2023-07-20T01:08:28;11.95;;;2.25;;
68353;SDS011;55274;43.060;25.618;2023-07-20T01:13:32;8.65;;;1.65;;
68353;SDS011;55274;43.060;25.618;2023-07-20T01:16:01;14.98;;;2.53;;
68353;SDS011;55274;43.060;25.618;2023-07-20T01:18:27;14.40;;;1.63;;
68353;SDS011;55274;43.060;25.618;2023-07-20T01:20:54;13.07;;;1.77;;
68353;SDS011;55274;43.060;25.618;2023-07-20T01:23:50;6.85;;;2.00;;
68353;SDS011;55274;43.060;25.618;2023-07-20T01:29:17;11.48;;;2.20;;
68353;SDS011;55274;43.060;25.618;2023-07-20T01:31:53;7.32;;;1.60;;
68353;SDS011;55274;43.060;25.618;2023-07-20T01:34:21;9.27;;;2.00;;
68353;SDS011;55274;43.060;25.618;2023-07-20T01:36:54;8.43;;;2.00;;
68353;SDS011;55274;43.060;25.618;2023-07-20T01:39:22;11.00;;;2.30;;
68353;SDS011;55274;43.060;25.618;2023-07-20T01:41:49;8.65;;;2.50;;
68353;SDS011;55274;43.060;25.618;2023-07-20T01:44:18;14.65;;;2.25;;
68353;SDS011;55274;43.060;25.618;2023-07-20T01:46:45;8.20;;;3.35;;
68353;SDS011;55274;43.060;25.618;2023-07-20T01:49:11;6.28;;;2.55;;
68353;SDS011;55274;43.060;25.618;2023-07-20T01:51:40;13.65;;;4.50;;
68353;SDS011;55274;43.060;25.618;2023-07-20T01:54:09;10.38;;;3.38;;
68353;SDS011;55274;43.060;25.618;2023-07-20T01:56:40;14.73;;;6.10;;
68353;SDS011;55274;43.060;25.618;2023-07-20T01:59:06;13.95;;;5.68;;
68353;SDS011;55274;43.060;25.618;2023-07-20T02:01:32;13.35;;;4.47;;
68353;SDS011;55274;43.060;25.618;2023-07-20T02:03:59;5.28;;;2.92;;
68353;SDS011;55274;43.060;25.618;2023-07-20T02:06:25;9.30;;;4.07;;
68353;SDS011;55274;43.060;25.618;2023-07-20T02:08:51;7.38;;;2.05;;
68353;SDS011;55274;43.060;25.618;2023-07-20T02:11:19;9.07;;;2.25;;
68353;SDS011;55274;43.060;25.618;2023-07-20T02:13:45;12.23;;;3.33;;
68353;SDS011;55274;43.060;25.618;2023-07-20T02:16:11;5.50;;;2.03;;
68353;SDS011;55274;43.060;25.618;2023-07-20T02:18:37;5.85;;;2.20;;
68353;SDS011;55274;43.060;25.618;2023-07-20T02:21:04;8.27;;;3.55;;
68353;SDS011;55274;43.060;25.618;2023-07-20T02:23:30;11.60;;;4.50;;
68353;SDS011;55274;43.060;25.618;2023-07-20T02:25:56;7.28;;;2.53;;
68353;SDS011;55274;43.060;25.618;2023-07-20T02:28:22;8.30;;;2.40;;
68353;SDS011;55274;43.060;25.618;2023-07-20T02:30:51;8.18;;;2.40;;
68353;SDS011;55274;43.060;25.618;2023-07-20T02:33:19;8.30;;;3.15;;
68353;SDS011;55274;43.060;25.618;2023-07-20T02:35:45;15.70;;;4.25;;
68353;SDS011;55274;43.060;25.618;2023-07-20T02:38:14;10.30;;;4.43;;
68353;SDS011;55274;43.060;25.618;2023-07-20T02:40:43;9.60;;;4.38;;
68353;SDS011;55274;43.060;25.618;2023-07-20T02:43:09;10.63;;;3.75;;
68353;SDS011;55274;43.060;25.618;2023-07-20T02:45:35;9.63;;;3.47;;
68353;SDS011;55274;43.060;25.618;2023-07-20T02:48:05;9.68;;;3.75;;
68353;SDS011;55274;43.060;25.618;2023-07-20T02:50:33;10.45;;;3.85;;
68353;SDS011;55274;43.060;25.618;2023-07-20T02:53:06;9.45;;;3.10;;
68353;SDS011;55274;43.060;25.618;2023-07-20T02:55:32;15.27;;;4.43;;
68353;SDS011;55274;43.060;25.618;2023-07-20T02:57:58;12.20;;;5.25;;
68353;SDS011;55274;43.060;25.618;2023-07-20T03:00:24;17.85;;;4.95;;
68353;SDS011;55274;43.060;25.618;2023-07-20T03:02:58;9.88;;;4.88;;
68353;SDS011;55274;43.060;25.618;2023-07-20T03:05:24;14.35;;;4.63;;
68353;SDS011;55274;43.060;25.618;2023-07-20T03:07:50;13.27;;;4.18;;
68353;SDS011;55274;43.060;25.618;2023-07-20T03:10:16;13.55;;;5.80;;
68353;SDS011;55274;43.060;25.618;2023-07-20T03:12:42;13.98;;;4.35;;
68353;SDS011;55274;43.060;25.618;2023-07-20T03:15:08;15.38;;;4.90;;
68353;SDS011;55274;43.060;25.618;2023-07-20T03:17:35;11.18;;;3.35;;
68353;SDS011;55274;43.060;25.618;2023-07-20T03:20:01;11.23;;;3.55;;
68353;SDS011;55274;43.060;25.618;2023-07-20T03:22:28;10.02;;;3.58;;
68353;SDS011;55274;43.060;25.618;2023-07-20T03:24:53;11.85;;;4.00;;
68353;SDS011;55274;43.060;25.618;2023-07-20T03:27:19;12.10;;;3.95;;
68353;SDS011;55274;43.060;25.618;2023-07-20T03:29:51;10.80;;;4.80;;
68353;SDS011;55274;43.060;25.618;2023-07-20T03:32:17;14.20;;;3.85;;
68353;SDS011;55274;43.060;25.618;2023-07-20T03:34:43;13.38;;;4.40;;
68353;SDS011;55274;43.060;25.618;2023-07-20T03:37:10;11.80;;;4.35;;
68353;SDS011;55274;43.060;25.618;2023-07-20T03:39:36;12.30;;;4.82;;
68353;SDS011;55274;43.060;25.618;2023-07-20T03:42:04;11.00;;;4.65;;
68353;SDS011;55274;43.060;25.618;2023-07-20T03:44:36;13.18;;;3.80;;
68353;SDS011;55274;43.060;25.618;2023-07-20T03:47:05;15.15;;;3.42;;
68353;SDS011;55274;43.060;25.618;2023-07-20T03:49:32;26.60;;;5.70;;
68353;SDS011;55274;43.060;25.618;2023-07-20T03:51:58;16.45;;;9.00;;
68353;SDS011;55274;43.060;25.618;2023-07-20T03:54:24;18.50;;;9.13;;
68353;SDS011;55274;43.060;25.618;2023-07-20T03:56:50;17.08;;;8.88;;
68353;SDS011;55274;43.060;25.618;2023-07-20T03:59:16;18.60;;;9.80;;
68353;SDS011;55274;43.060;25.618;2023-07-20T04:01:42;11.52;;;5.50;;
68353;SDS011;55274;43.060;25.618;2023-07-20T04:04:08;15.00;;;6.22;;
68353;SDS011;55274;43.060;25.618;2023-07-20T04:06:34;10.85;;;3.70;;
68353;SDS011;55274;43.060;25.618;2023-07-20T04:09:00;11.98;;;6.60;;
68353;SDS011;55274;43.060;25.618;2023-07-20T04:11:26;20.05;;;10.23;;
68353;SDS011;55274;43.060;25.618;2023-07-20T04:13:52;17.83;;;9.75;;
68353;SDS011;55274;43.060;25.618;2023-07-20T04:16:19;17.27;;;9.15;;
68353;SDS011;55274;43.060;25.618;2023-07-20T04:18:48;13.50;;;6.63;;
68353;SDS011;55274;43.060;25.618;2023-07-20T04:21:14;15.30;;;6.32;;
68353;SDS011;55274;43.060;25.618;2023-07-20T04:23:46;15.02;;;3.80;;
68353;SDS011;55274;43.060;25.618;2023-07-20T04:26:11;15.25;;;4.40;;
68353;SDS011;55274;43.060;25.618;2023-07-20T04:28:38;9.23;;;3.22;;
68353;SDS011;55274;43.060;25.618;2023-07-20T04:31:11;11.27;;;3.92;;
68353;SDS011;55274;43.060;25.618;2023-07-20T04:33:40;6.47;;;2.22;;
68353;SDS011;55274;43.060;25.618;2023-07-20T04:36:07;8.45;;;2.35;;
68353;SDS011;55274;43.060;25.618;2023-07-20T04:38:34;7.93;;;2.03;;
68353;SDS011;55274;43.060;25.618;2023-07-20T04:41:00;7.25;;;2.05;;
68353;SDS011;55274;43.060;25.618;2023-07-20T04:43:29;4.57;;;1.85;;
68353;SDS011;55274;43.060;25.618;2023-07-20T04:45:55;8.27;;;3.45;;
68353;SDS011;55274;43.060;25.618;2023-07-20T04:48:21;9.45;;;3.70;;
68353;SDS011;55274;43.060;25.618;2023-07-20T04:50:48;17.65;;;3.65;;
68353;SDS011;55274;43.060;25.618;2023-07-20T04:53:14;9.27;;;3.22;;
68353;SDS011;55274;43.060;25.618;2023-07-20T04:55:40;7.60;;;1.83;;
68353;SDS011;55274;43.060;25.618;2023-07-20T04:58:15;6.70;;;2.33;;
68353;SDS011;55274;43.060;25.618;2023-07-20T05:00:42;11.98;;;2.83;;
68353;SDS011;55274;43.060;25.618;2023-07-20T05:03:08;10.18;;;2.80;;
68353;SDS011;55274;43.060;25.618;2023-07-20T05:05:34;11.82;;;3.13;;
68353;SDS011;55274;43.060;25.618;2023-07-20T05:08:00;8.55;;;2.72;;
68353;SDS011;55274;43.060;25.618;2023-07-20T05:10:29;13.13;;;3.50;;
68353;SDS011;55274;43.060;25.618;2023-07-20T05:12:55;14.43;;;3.38;;
68353;SDS011;55274;43.060;25.618;2023-07-20T05:15:21;7.45;;;1.98;;
68353;SDS011;55274;43.060;25.618;2023-07-20T05:17:46;9.73;;;2.08;;
68353;SDS011;55274;43.060;25.618;2023-07-20T05:20:14;9.15;;;2.33;;
68353;SDS011;55274;43.060;25.618;2023-07-20T05:22:40;24.58;;;2.92;;
68353;SDS011;55274;43.060;25.618;2023-07-20T05:25:06;11.75;;;2.55;;
68353;SDS011;55274;43.060;25.618;2023-07-20T05:27:34;18.42;;;2.83;;
68353;SDS011;55274;43.060;25.618;2023-07-20T05:30:03;8.10;;;2.28;;
68353;SDS011;55274;43.060;25.618;2023-07-20T05:32:29;11.93;;;2.33;;
68353;SDS011;55274;43.060;25.618;2023-07-20T05:34:55;13.18;;;2.47;;
68353;SDS011;55274;43.060;25.618;2023-07-20T05:37:21;3.95;;;2.08;;
68353;SDS011;55274;43.060;25.618;2023-07-20T05:39:47;10.55;;;2.00;;
68353;SDS011;55274;43.060;25.618;2023-07-20T05:42:12;17.58;;;2.67;;
68353;SDS011;55274;43.060;25.618;2023-07-20T05:44:39;12.05;;;2.30;;
68353;SDS011;55274;43.060;25.618;2023-07-20T05:47:06;5.18;;;2.00;;
68353;SDS011;55274;43.060;25.618;2023-07-20T05:49:32;6.65;;;2.10;;
68353;SDS011;55274;43.060;25.618;2023-07-20T05:51:57;15.10;;;2.67;;
68353;SDS011;55274;43.060;25.618;2023-07-20T05:54:24;10.98;;;2.63;;
68353;SDS011;55274;43.060;25.618;2023-07-20T05:56:50;12.25;;;2.72;;
68353;SDS011;55274;43.060;25.618;2023-07-20T05:59:16;10.85;;;2.65;;
68353;SDS011;55274;43.060;25.618;2023-07-20T06:01:43;7.78;;;2.50;;
68353;SDS011;55274;43.060;25.618;2023-07-20T06:04:09;10.85;;;2.90;;
68353;SDS011;55274;43.060;25.618;2023-07-20T06:06:34;10.63;;;3.00;;
68353;SDS011;55274;43.060;25.618;2023-07-20T06:09:00;15.35;;;3.17;;
68353;SDS011;55274;43.060;25.618;2023-07-20T06:11:30;9.93;;;3.28;;
68353;SDS011;55274;43.060;25.618;2023-07-20T06:13:56;12.27;;;3.47;;
68353;SDS011;55274;43.060;25.618;2023-07-20T06:16:22;9.88;;;3.45;;
68353;SDS011;55274;43.060;25.618;2023-07-20T06:18:48;17.73;;;3.83;;
68353;SDS011;55274;43.060;25.618;2023-07-20T06:21:14;12.60;;;4.82;;
68353;SDS011;55274;43.060;25.618;2023-07-20T06:23:40;13.02;;;2.75;;
68353;SDS011;55274;43.060;25.618;2023-07-20T06:26:06;10.45;;;3.20;;
68353;SDS011;55274;43.060;25.618;2023-07-20T06:28:32;10.38;;;3.03;;
68353;SDS011;55274;43.060;25.618;2023-07-20T06:30:59;8.15;;;3.13;;
68353;SDS011;55274;43.060;25.618;2023-07-20T06:33:26;15.73;;;4.18;;
68353;SDS011;55274;43.060;25.618;2023-07-20T06:35:52;12.65;;;3.88;;
68353;SDS011;55274;43.060;25.618;2023-07-20T06:38:18;7.35;;;3.17;;
68353;SDS011;55274;43.060;25.618;2023-07-20T06:40:47;11.50;;;3.40;;
68353;SDS011;55274;43.060;25.618;2023-07-20T06:43:12;58.50;;;6.85;;
68353;SDS011;55274;43.060;25.618;2023-07-20T06:45:38;29.50;;;5.30;;
68353;SDS011;55274;43.060;25.618;2023-07-20T06:48:04;12.75;;;4.07;;
68353;SDS011;55274;43.060;25.618;2023-07-20T06:50:30;10.75;;;3.70;;
68353;SDS011;55274;43.060;25.618;2023-07-20T06:52:56;9.30;;;4.03;;
68353;SDS011;55274;43.060;25.618;2023-07-20T06:55:22;8.90;;;3.75;;
68353;SDS011;55274;43.060;25.618;2023-07-20T06:57:48;9.55;;;4.90;;
68353;SDS011;55274;43.060;25.618;2023-07-20T07:00:13;10.13;;;3.40;;
68353;SDS011;55274;43.060;25.618;2023-07-20T07:02:39;11.75;;;4.68;;
68353;SDS011;55274;43.060;25.618;2023-07-20T07:05:05;9.35;;;4.28;;
68353;SDS011;55274;43.060;25.618;2023-07-20T07:07:31;27.80;;;5.78;;
68353;SDS011;55274;43.060;25.618;2023-07-20T07:09:57;8.52;;;3.10;;
68353;SDS011;55274;43.060;25.618;2023-07-20T07:12:23;8.60;;;3.33;;
68353;SDS011;55274;43.060;25.618;2023-07-20T07:14:48;9.35;;;2.55;;
68353;SDS011;55274;43.060;25.618;2023-07-20T07:17:14;9.63;;;2.95;;
68353;SDS011;55274;43.060;25.618;2023-07-20T07:19:40;10.80;;;3.92;;
68353;SDS011;55274;43.060;25.618;2023-07-20T07:22:07;6.68;;;2.35;;
68353;SDS011;55274;43.060;25.618;2023-07-20T07:24:33;9.20;;;2.35;;
68353;SDS011;55274;43.060;25.618;2023-07-20T07:27:02;10.70;;;2.00;;
68353;SDS011;55274;43.060;25.618;2023-07-20T07:29:29;18.52;;;3.45;;
68353;SDS011;55274;43.060;25.618;2023-07-20T07:31:54;4.63;;;1.80;;
68353;SDS011;55274;43.060;25.618;2023-07-20T07:34:20;10.25;;;2.67;;
68353;SDS011;55274;43.060;25.618;2023-07-20T07:36:46;7.10;;;1.95;;
68353;SDS011;55274;43.060;25.618;2023-07-20T07:39:12;4.97;;;1.50;;
68353;SDS011;55274;43.060;25.618;2023-07-20T07:41:38;6.30;;;1.80;;
68353;SDS011;55274;43.060;25.618;2023-07-20T07:44:04;7.13;;;1.52;;
68353;SDS011;55274;43.060;25.618;2023-07-20T07:46:30;5.22;;;2.05;;
68353;SDS011;55274;43.060;25.618;2023-07-20T07:48:56;23.52;;;2.83;;
68353;SDS011;55274;43.060;25.618;2023-07-20T07:51:22;8.55;;;2.65;;
68353;SDS011;55274;43.060;25.618;2023-07-20T07:53:47;5.38;;;1.60;;
68353;SDS011;55274;43.060;25.618;2023-07-20T07:56:14;3.55;;;1.30;;
68353;SDS011;55274;43.060;25.618;2023-07-20T07:58:40;9.80;;;2.53;;
68353;SDS011;55274;43.060;25.618;2023-07-20T08:01:05;9.07;;;1.75;;
68353;SDS011;55274;43.060;25.618;2023-07-20T08:03:31;3.92;;;1.77;;
68353;SDS011;55274;43.060;25.618;2023-07-20T08:05:57;6.43;;;1.90;;
68353;SDS011;55274;43.060;25.618;2023-07-20T08:08:25;4.35;;;1.60;;
68353;SDS011;55274;43.060;25.618;2023-07-20T08:10:54;14.95;;;2.78;;
68353;SDS011;55274;43.060;25.618;2023-07-20T08:13:22;18.42;;;1.85;;
68353;SDS011;55274;43.060;25.618;2023-07-20T08:15:49;25.95;;;3.55;;
68353;SDS011;55274;43.060;25.618;2023-07-20T08:18:17;10.40;;;2.28;;
68353;SDS011;55274;43.060;25.618;2023-07-20T08:20:46;6.55;;;1.42;;
68353;SDS011;55274;43.060;25.618;2023-07-20T08:23:12;6.43;;;1.42;;
68353;SDS011;55274;43.060;25.618;2023-07-20T08:25:39;11.23;;;3.17;;
68353;SDS011;55274;43.060;25.618;2023-07-20T08:28:09;3.80;;;1.67;;
68353;SDS011;55274;43.060;25.618;2023-07-20T08:30:43;3.58;;;1.38;;
68353;SDS011;55274;43.060;25.618;2023-07-20T08:33:10;2.83;;;1.38;;
68353;SDS011;55274;43.060;25.618;2023-07-20T08:35:38;5.82;;;2.50;;
68353;SDS011;55274;43.060;25.618;2023-07-20T08:38:04;3.72;;;1.33;;
68353;SDS011;55274;43.060;25.618;2023-07-20T08:40:31;6.47;;;1.20;;
68353;SDS011;55274;43.060;25.618;2023-07-20T08:42:58;5.10;;;1.30;;
68353;SDS011;55274;43.060;25.618;2023-07-20T08:45:25;6.65;;;2.10;;
68353;SDS011;55274;43.060;25.618;2023-07-20T08:47:58;6.50;;;1.77;;
68353;SDS011;55274;43.060;25.618;2023-07-20T08:50:28;7.28;;;1.90;;
68353;SDS011;55274;43.060;25.618;2023-07-20T08:52:56;4.07;;;1.48;;
68353;SDS011;55274;43.060;25.618;2023-07-20T08:55:25;4.05;;;1.20;;
68353;SDS011;55274;43.060;25.618;2023-07-20T08:57:55;4.97;;;1.50;;
68353;SDS011;55274;43.060;25.618;2023-07-20T09:00:23;5.40;;;1.92;;
68353;SDS011;55274;43.060;25.618;2023-07-20T09:02:50;2.60;;;1.20;;
68353;SDS011;55274;43.060;25.618;2023-07-20T09:05:17;3.80;;;1.65;;
68353;SDS011;55274;43.060;25.618;2023-07-20T09:07:44;10.32;;;1.40;;
68353;SDS011;55274;43.060;25.618;2023-07-20T09:10:10;16.90;;;3.08;;
68353;SDS011;55274;43.060;25.618;2023-07-20T09:12:40;7.43;;;2.00;;
68353;SDS011;55274;43.060;25.618;2023-07-20T09:15:07;3.28;;;1.60;;
68353;SDS011;55274;43.060;25.618;2023-07-20T09:17:34;3.45;;;1.25;;
68353;SDS011;55274;43.060;25.618;2023-07-20T09:20:07;11.38;;;2.13;;
68353;SDS011;55274;43.060;25.618;2023-07-20T09:22:36;4.47;;;1.98;;
68353;SDS011;55274;43.060;25.618;2023-07-20T09:25:06;16.30;;;3.38;;
68353;SDS011;55274;43.060;25.618;2023-07-20T09:27:44;4.50;;;1.55;;
68353;SDS011;55274;43.060;25.618;2023-07-20T09:30:11;4.78;;;1.52;;
68353;SDS011;55274;43.060;25.618;2023-07-20T09:32:47;3.70;;;1.77;;
68353;SDS011;55274;43.060;25.618;2023-07-20T09:37:41;9.07;;;1.85;;
68353;SDS011;55274;43.060;25.618;2023-07-20T09:40:14;4.43;;;1.60;;
68353;SDS011;55274;43.060;25.618;2023-07-20T09:42:42;44.83;;;3.47;;
68353;SDS011;55274;43.060;25.618;2023-07-20T09:45:08;11.35;;;2.33;;
68353;SDS011;55274;43.060;25.618;2023-07-20T09:47:35;6.47;;;2.60;;
68353;SDS011;55274;43.060;25.618;2023-07-20T09:50:03;15.90;;;3.78;;
68353;SDS011;55274;43.060;25.618;2023-07-20T09:52:30;8.82;;;3.30;;
68353;SDS011;55274;43.060;25.618;2023-07-20T09:54:57;28.33;;;3.70;;
68353;SDS011;55274;43.060;25.618;2023-07-20T09:57:23;4.13;;;1.55;;
68353;SDS011;55274;43.060;25.618;2023-07-20T09:59:51;12.43;;;2.60;;
68353;SDS011;55274;43.060;25.618;2023-07-20T10:02:20;10.65;;;2.30;;
68353;SDS011;55274;43.060;25.618;2023-07-20T10:04:51;18.52;;;2.78;;
68353;SDS011;55274;43.060;25.618;2023-07-20T10:07:19;13.35;;;2.00;;
68353;SDS011;55274;43.060;25.618;2023-07-20T10:09:48;6.40;;;2.00;;
68353;SDS011;55274;43.060;25.618;2023-07-20T10:12:17;7.32;;;1.70;;
68353;SDS011;55274;43.060;25.618;2023-07-20T10:14:51;6.22;;;1.98;;
68353;SDS011;55274;43.060;25.618;2023-07-20T10:17:22;11.10;;;2.05;;
68353;SDS011;55274;43.060;25.618;2023-07-20T10:19:51;19.98;;;5.05;;
68353;SDS011;55274;43.060;25.618;2023-07-20T10:22:25;8.63;;;2.70;;
68353;SDS011;55274;43.060;25.618;2023-07-20T10:24:52;40.78;;;4.78;;
68353;SDS011;55274;43.060;25.618;2023-07-20T10:27:22;16.13;;;2.60;;
68353;SDS011;55274;43.060;25.618;2023-07-20T10:29:48;10.00;;;3.65;;
68353;SDS011;55274;43.060;25.618;2023-07-20T10:32:19;10.02;;;2.97;;
68353;SDS011;55274;43.060;25.618;2023-07-20T10:34:52;5.53;;;1.80;;
68353;SDS011;55274;43.060;25.618;2023-07-20T10:38:21;5.38;;;1.75;;
68353;SDS011;55274;43.060;25.618;2023-07-20T10:40:23;7.47;;;2.08;;
68353;SDS011;55274;43.060;25.618;2023-07-20T10:42:49;11.80;;;2.88;;
68353;SDS011;55274;43.060;25.618;2023-07-20T10:45:16;7.75;;;2.67;;
68353;SDS011;55274;43.060;25.618;2023-07-20T10:47:46;36.88;;;9.88;;
68353;SDS011;55274;43.060;25.618;2023-07-20T10:50:12;5.50;;;2.08;;
68353;SDS011;55274;43.060;25.618;2023-07-20T10:52:39;5.93;;;2.10;;
68353;SDS011;55274;43.060;25.618;2023-07-20T10:55:15;7.97;;;2.80;;
68353;SDS011;55274;43.060;25.618;2023-07-20T10:57:41;6.07;;;2.17;;
68353;SDS011;55274;43.060;25.618;2023-07-20T11:00:12;15.32;;;2.80;;
68353;SDS011;55274;43.060;25.618;2023-07-20T11:02:46;8.90;;;2.28;;
68353;SDS011;55274;43.060;25.618;2023-07-20T11:05:34;7.57;;;2.00;;
68353;SDS011;55274;43.060;25.618;2023-07-20T11:08:03;6.60;;;2.10;;
68353;SDS011;55274;43.060;25.618;2023-07-20T11:10:36;7.13;;;1.95;;
68353;SDS011;55274;43.060;25.618;2023-07-20T11:18:26;4.85;;;2.20;;
68353;SDS011;55274;43.060;25.618;2023-07-20T11:20:52;6.20;;;2.30;;
68353;SDS011;55274;43.060;25.618;2023-07-20T11:23:22;7.25;;;2.28;;
68353;SDS011;55274;43.060;25.618;2023-07-20T11:25:48;6.07;;;2.10;;
68353;SDS011;55274;43.060;25.618;2023-07-20T11:28:14;9.43;;;1.92;;
68353;SDS011;55274;43.060;25.618;2023-07-20T11:30:41;8.50;;;2.33;;
68353;SDS011;55274;43.060;25.618;2023-07-20T11:33:09;9.05;;;2.40;;
68353;SDS011;55274;43.060;25.618;2023-07-20T11:35:36;5.78;;;2.33;;
68353;SDS011;55274;43.060;25.618;2023-07-20T11:38:08;5.85;;;2.10;;
68353;SDS011;55274;43.060;25.618;2023-07-20T11:40:34;6.00;;;2.30;;
68353;SDS011;55274;43.060;25.618;2023-07-20T11:43:00;7.95;;;2.92;;
68353;SDS011;55274;43.060;25.618;2023-07-20T11:45:26;7.82;;;2.03;;
68353;SDS011;55274;43.060;25.618;2023-07-20T11:47:52;6.10;;;1.75;;
68353;SDS011;55274;43.060;25.618;2023-07-20T11:50:18;9.45;;;2.20;;
68353;SDS011;55274;43.060;25.618;2023-07-20T11:52:44;6.68;;;2.50;;
68353;SDS011;55274;43.060;25.618;2023-07-20T11:55:10;34.03;;;4.63;;
68353;SDS011;55274;43.060;25.618;2023-07-20T11:57:37;8.20;;;2.50;;
68353;SDS011;55274;43.060;25.618;2023-07-20T12:00:04;13.80;;;2.40;;
68353;SDS011;55274;43.060;25.618;2023-07-20T12:02:34;3.10;;;1.85;;
68353;SDS011;55274;43.060;25.618;2023-07-20T12:05:01;8.70;;;1.85;;
68353;SDS011;55274;43.060;25.618;2023-07-20T12:07:28;9.13;;;2.60;;
68353;SDS011;55274;43.060;25.618;2023-07-20T12:12:43;6.15;;;2.00;;
68353;SDS011;55274;43.060;25.618;2023-07-20T12:17:45;7.28;;;2.40;;
68353;SDS011;55274;43.060;25.618;2023-07-20T12:20:24;4.03;;;1.90;;
68353;SDS011;55274;43.060;25.618;2023-07-20T12:22:59;3.90;;;1.80;;
68353;SDS011;55274;43.060;25.618;2023-07-20T12:28:09;7.05;;;2.13;;
68353;SDS011;55274;43.060;25.618;2023-07-20T12:30:37;4.32;;;2.03;;
68353;SDS011;55274;43.060;25.618;2023-07-20T12:33:03;5.60;;;2.20;;
68353;SDS011;55274;43.060;25.618;2023-07-20T12:35:30;3.20;;;1.45;;
68353;SDS011;55274;43.060;25.618;2023-07-20T12:37:56;7.30;;;1.70;;
68353;SDS011;55274;43.060;25.618;2023-07-20T12:40:25;3.75;;;1.50;;
68353;SDS011;55274;43.060;25.618;2023-07-20T12:42:51;3.47;;;1.70;;
68353;SDS011;55274;43.060;25.618;2023-07-20T12:45:17;6.32;;;1.77;;
68353;SDS011;55274;43.060;25.618;2023-07-20T12:47:43;3.25;;;1.52;;
68353;SDS011;55274;43.060;25.618;2023-07-20T12:50:09;5.53;;;2.33;;
68353;SDS011;55274;43.060;25.618;2023-07-20T12:52:36;6.68;;;1.90;;
68353;SDS011;55274;43.060;25.618;2023-07-20T12:55:06;5.38;;;1.95;;
68353;SDS011;55274;43.060;25.618;2023-07-20T12:57:36;4.22;;;1.83;;
68353;SDS011;55274;43.060;25.618;2023-07-20T13:02:30;6.38;;;1.35;;
68353;SDS011;55274;43.060;25.618;2023-07-20T13:04:57;3.63;;;1.40;;
68353;SDS011;55274;43.060;25.618;2023-07-20T13:07:33;3.60;;;1.55;;
68353;SDS011;55274;43.060;25.618;2023-07-20T13:10:00;4.80;;;1.55;;
68353;SDS011;55274;43.060;25.618;2023-07-20T13:12:28;5.00;;;1.98;;
68353;SDS011;55274;43.060;25.618;2023-07-20T13:14:55;8.27;;;2.20;;
68353;SDS011;55274;43.060;25.618;2023-07-20T13:17:24;5.32;;;1.92;;
68353;SDS011;55274;43.060;25.618;2023-07-20T13:19:50;3.38;;;1.30;;
68353;SDS011;55274;43.060;25.618;2023-07-20T13:22:16;5.53;;;1.80;;
68353;SDS011;55274;43.060;25.618;2023-07-20T13:24:43;3.08;;;1.33;;
68353;SDS011;55274;43.060;25.618;2023-07-20T13:27:11;5.07;;;1.60;;
68353;SDS011;55274;43.060;25.618;2023-07-20T13:29:36;8.18;;;1.60;;
68353;SDS011;55274;43.060;25.618;2023-07-20T13:32:02;94.05;;;8.93;;
68353;SDS011;55274;43.060;25.618;2023-07-20T13:34:30;7.72;;;1.60;;
68353;SDS011;55274;43.060;25.618;2023-07-20T13:36:56;22.10;;;3.28;;
68353;SDS011;55274;43.060;25.618;2023-07-20T13:39:22;3.97;;;1.80;;
68353;SDS011;55274;43.060;25.618;2023-07-20T13:41:49;37.88;;;3.42;;
68353;SDS011;55274;43.060;25.618;2023-07-20T13:44:15;8.60;;;2.10;;
68353;SDS011;55274;43.060;25.618;2023-07-20T13:46:40;6.90;;;1.90;;
68353;SDS011;55274;43.060;25.618;2023-07-20T13:49:06;5.72;;;1.50;;
68353;SDS011;55274;43.060;25.618;2023-07-20T13:51:32;3.03;;;1.35;;
68353;SDS011;55274;43.060;25.618;2023-07-20T13:53:58;1.90;;;1.05;;
68353;SDS011;55274;43.060;25.618;2023-07-20T13:56:24;4.10;;;1.13;;
68353;SDS011;55274;43.060;25.618;2023-07-20T13:58:50;4.75;;;1.90;;
68353;SDS011;55274;43.060;25.618;2023-07-20T14:01:16;7.72;;;1.90;;
68353;SDS011;55274;43.060;25.618;2023-07-20T14:03:43;5.93;;;1.58;;
68353;SDS011;55274;43.060;25.618;2023-07-20T14:06:09;6.15;;;1.70;;
68353;SDS011;55274;43.060;25.618;2023-07-20T14:08:34;3.97;;;1.50;;
68353;SDS011;55274;43.060;25.618;2023-07-20T14:11:00;6.18;;;1.77;;
68353;SDS011;55274;43.060;25.618;2023-07-20T14:13:26;4.38;;;1.40;;
68353;SDS011;55274;43.060;25.618;2023-07-20T14:15:52;3.85;;;1.50;;
68353;SDS011;55274;43.060;25.618;2023-07-20T14:18:18;2.97;;;1.17;;
68353;SDS011;55274;43.060;25.618;2023-07-20T14:20:43;3.28;;;1.50;;
68353;SDS011;55274;43.060;25.618;2023-07-20T14:23:09;4.38;;;1.35;;
68353;SDS011;55274;43.060;25.618;2023-07-20T14:25:35;4.03;;;1.92;;
68353;SDS011;55274;43.060;25.618;2023-07-20T14:28:01;3.72;;;1.30;;
68353;SDS011;55274;43.060;25.618;2023-07-20T14:30:27;3.63;;;1.42;;
68353;SDS011;55274;43.060;25.618;2023-07-20T14:32:52;2.35;;;1.17;;
68353;SDS011;55274;43.060;25.618;2023-07-20T14:35:18;4.32;;;1.40;;
68353;SDS011;55274;43.060;25.618;2023-07-20T14:37:44;2.75;;;1.20;;
68353;SDS011;55274;43.060;25.618;2023-07-20T14:40:13;3.67;;;1.30;;
68353;SDS011;55274;43.060;25.618;2023-07-20T14:42:39;3.90;;;1.40;;
68353;SDS011;55274;43.060;25.618;2023-07-20T14:45:05;3.38;;;1.27;;
68353;SDS011;55274;43.060;25.618;2023-07-20T14:47:31;4.15;;;1.30;;
68353;SDS011;55274;43.060;25.618;2023-07-20T14:50:00;3.53;;;1.45;;
68353;SDS011;55274;43.060;25.618;2023-07-20T14:52:27;3.38;;;1.52;;
68353;SDS011;55274;43.060;25.618;2023-07-20T14:54:53;6.82;;;1.50;;